Time;durP1;ratioP1;P1;durP2;ratioP2;P2;SDS_P1;SDS_P2;PMS_P1;PMS_P2;Temp;Humidity;BMP_temperature;BMP_pressure;BME280_temperature;BME280_humidity;BME280_pressure;Samples;Min_cycle;Max_cycle;Signal;HPM_P1;HPM_P2
2022/03/03 00:02:54;;;;;;;17.35;9.05;;;;;;;;;;6210910;28;20129;-73
2022/03/03 00:05:55;;;;;;;13.02;8.57;;;;;;;;;;6204139;28;20129;-73
2022/03/03 00:08:57;;;;;;;11.57;8.48;;;;;;;;;;6208102;28;20121;-73
2022/03/03 00:11:59;;;;;;;12.65;8.57;;;;;;;;;;6206988;28;20143;-73
2022/03/03 00:15:00;;;;;;;14.30;9.05;;;;;;;;;;6205283;28;20034;-73
2022/03/03 00:18:03;;;;;;;10.88;7.70;;;;;;;;;;6205540;28;20615;-73
2022/03/03 00:21:05;;;;;;;14.93;9.47;;;;;;;;;;6206024;28;20216;-73
2022/03/03 00:24:08;;;;;;;15.57;9.18;;;;;;;;;;6200203;28;20077;-73
2022/03/03 00:27:09;;;;;;;14.30;9.00;;;;;;;;;;6204007;28;20128;-73
2022/03/03 00:30:13;;;;;;;14.82;9.10;;;;;;;;;;6209449;28;20133;-73
2022/03/03 00:33:16;;;;;;;13.65;9.10;;;;;;;;;;6207665;28;20385;-73
2022/03/03 00:36:18;;;;;;;12.98;8.60;;;;;;;;;;6212622;28;20183;-73
2022/03/03 00:39:20;;;;;;;11.23;8.45;;;;;;;;;;6207924;28;20129;-73
2022/03/03 00:42:22;;;;;;;11.85;8.65;;;;;;;;;;6208578;28;20042;-73
2022/03/03 00:45:23;;;;;;;13.70;8.82;;;;;;;;;;6207508;28;20193;-73
2022/03/03 00:48:26;;;;;;;15.52;9.07;;;;;;;;;;6206135;28;20185;-74
2022/03/03 00:51:28;;;;;;;12.25;8.75;;;;;;;;;;6206691;28;20171;-73
2022/03/03 00:54:30;;;;;;;15.25;9.00;;;;;;;;;;6204541;28;20577;-73
2022/03/03 00:57:31;;;;;;;12.82;8.77;;;;;;;;;;6204361;28;20129;-74
2022/03/03 01:00:33;;;;;;;13.48;8.70;;;;;;;;;;6203050;28;20057;-74
2022/03/03 01:03:36;;;;;;;13.93;9.05;;;;;;;;;;6203957;28;20050;-74
2022/03/03 01:06:37;;;;;;;14.40;8.70;;;;;;;;;;6208229;28;20077;-74
2022/03/03 01:09:39;;;;;;;16.33;9.20;;;;;;;;;;6213836;28;20456;-74
2022/03/03 01:12:41;;;;;;;14.98;9.60;;;;;;;;;;6215578;28;20108;-74
2022/03/03 01:15:42;;;;;;;13.15;8.50;;;;;;;;;;6209319;28;20224;-74
2022/03/03 01:18:45;;;;;;;12.95;8.73;;;;;;;;;;6207883;28;20585;-74
2022/03/03 01:21:47;;;;;;;13.82;8.40;;;;;;;;;;6211444;28;20518;-74
2022/03/03 01:24:48;;;;;;;13.02;8.88;;;;;;;;;;6213090;28;20102;-74
2022/03/03 01:27:50;;;;;;;12.50;8.52;;;;;;;;;;6212048;28;20081;-74
2022/03/03 01:30:51;;;;;;;12.07;8.10;;;;;;;;;;6209801;28;20510;-74
2022/03/03 01:33:55;;;;;;;13.73;8.63;;;;;;;;;;6209272;28;20078;-74
2022/03/03 01:36:56;;;;;;;12.00;7.77;;;;;;;;;;6207310;28;20125;-74
2022/03/03 01:39:58;;;;;;;12.10;8.02;;;;;;;;;;6206932;28;20125;-74
2022/03/03 01:43:00;;;;;;;12.95;8.82;;;;;;;;;;6208473;28;20124;-73
2022/03/03 01:46:01;;;;;;;11.63;8.27;;;;;;;;;;6211937;28;20139;-74
2022/03/03 01:49:04;;;;;;;12.00;8.30;;;;;;;;;;6216762;28;20126;-74
2022/03/03 01:52:06;;;;;;;10.43;7.70;;;;;;;;;;6218851;28;20193;-74
2022/03/03 01:55:10;;;;;;;12.27;8.68;;;;;;;;;;6210171;28;20046;-74
2022/03/03 01:58:12;;;;;;;10.23;7.28;;;;;;;;;;6212941;28;20070;-74
2022/03/03 02:01:15;;;;;;;12.63;8.13;;;;;;;;;;6211817;28;20551;-74
2022/03/03 02:04:18;;;;;;;12.23;7.70;;;;;;;;;;6210897;28;20055;-74
2022/03/03 02:07:20;;;;;;;12.40;8.13;;;;;;;;;;6208733;28;20605;-74
2022/03/03 02:10:21;;;;;;;12.70;8.52;;;;;;;;;;6206703;28;20554;-74
2022/03/03 02:13:23;;;;;;;18.65;9.27;;;;;;;;;;6204249;28;20046;-74
2022/03/03 02:16:25;;;;;;;11.82;8.30;;;;;;;;;;6204300;28;20129;-74
2022/03/03 02:19:28;;;;;;;12.50;9.25;;;;;;;;;;6213378;28;20059;-74
2022/03/03 02:22:36;;;;;;;13.38;8.77;;;;;;;;;;6205853;28;20565;-74
2022/03/03 02:25:37;;;;;;;14.85;9.43;;;;;;;;;;6209683;28;20065;-74
2022/03/03 02:28:39;;;;;;;14.10;9.82;;;;;;;;;;6216300;28;20062;-74
2022/03/03 02:31:41;;;;;;;15.80;10.65;;;;;;;;;;6213904;28;20501;-74
2022/03/03 02:34:47;;;;;;;16.40;10.73;;;;;;;;;;6211206;28;20046;-74
2022/03/03 02:37:50;;;;;;;17.60;11.45;;;;;;;;;;6209570;28;20077;-74
2022/03/03 02:40:52;;;;;;;17.73;12.45;;;;;;;;;;6208908;28;20076;-74
2022/03/03 02:43:54;;;;;;;17.30;11.32;;;;;;;;;;6208708;28;20046;-74
2022/03/03 02:46:55;;;;;;;18.63;12.23;;;;;;;;;;6205996;28;20056;-74
2022/03/03 02:49:57;;;;;;;18.60;12.02;;;;;;;;;;6206477;28;20092;-74
2022/03/03 02:53:02;;;;;;;18.90;11.65;;;;;;;;;;6206383;28;20268;-74
2022/03/03 02:56:04;;;;;;;19.52;11.95;;;;;;;;;;6207774;28;20465;-74
2022/03/03 02:59:05;;;;;;;17.60;11.55;;;;;;;;;;6211555;28;20179;-74
2022/03/03 03:02:07;;;;;;;20.17;12.75;;;;;;;;;;6208925;28;20148;-74
2022/03/03 03:05:09;;;;;;;18.65;12.75;;;;;;;;;;6207248;28;20046;-74
2022/03/03 03:08:12;;;;;;;18.02;12.30;;;;;;;;;;6212378;28;20068;-74
2022/03/03 03:11:14;;;;;;;17.55;12.13;;;;;;;;;;6209994;28;20057;-74
2022/03/03 03:14:15;;;;;;;21.25;11.88;;;;;;;;;;6210694;28;20176;-74
2022/03/03 03:17:17;;;;;;;19.52;13.35;;;;;;;;;;6208182;28;20256;-74
2022/03/03 03:20:18;;;;;;;17.73;11.85;;;;;;;;;;6207621;28;20046;-74
2022/03/03 03:23:23;;;;;;;17.83;12.45;;;;;;;;;;6204091;28;20446;-74
2022/03/03 03:26:25;;;;;;;21.00;12.50;;;;;;;;;;6201872;28;20125;-74
2022/03/03 03:29:26;;;;;;;19.60;12.82;;;;;;;;;;6210447;28;20054;-74
2022/03/03 03:32:28;;;;;;;18.30;12.00;;;;;;;;;;6210072;28;20196;-74
2022/03/03 03:35:29;;;;;;;18.30;11.73;;;;;;;;;;6207311;28;20185;-74
2022/03/03 03:38:32;;;;;;;16.83;12.05;;;;;;;;;;6205357;28;20096;-74
2022/03/03 03:41:34;;;;;;;19.88;12.65;;;;;;;;;;6204910;28;20180;-75
2022/03/03 03:44:37;;;;;;;18.15;13.40;;;;;;;;;;6200827;28;20152;-75
2022/03/03 03:47:40;;;;;;;18.50;12.95;;;;;;;;;;6209637;28;20074;-75
2022/03/03 03:50:42;;;;;;;19.38;13.00;;;;;;;;;;6207516;28;20109;-73
2022/03/03 03:53:45;;;;;;;23.02;13.48;;;;;;;;;;6211428;28;20041;-72
2022/03/03 03:56:46;;;;;;;22.05;12.57;;;;;;;;;;6204588;28;20089;-73
2022/03/03 03:59:48;;;;;;;20.02;12.77;;;;;;;;;;6205007;28;20046;-72
2022/03/03 04:02:49;;;;;;;23.42;13.95;;;;;;;;;;6207265;28;20096;-70
2022/03/03 04:05:51;;;;;;;20.33;13.00;;;;;;;;;;6210877;28;20121;-72
2022/03/03 04:08:54;;;;;;;18.08;12.95;;;;;;;;;;6208155;28;20133;-72
2022/03/03 04:11:55;;;;;;;22.58;14.07;;;;;;;;;;6204385;28;20049;-72
2022/03/03 04:14:56;;;;;;;19.75;13.15;;;;;;;;;;6201070;28;20049;-72
2022/03/03 04:17:58;;;;;;;18.42;12.52;;;;;;;;;;6203566;28;20050;-72
2022/03/03 04:21:00;;;;;;;19.58;12.98;;;;;;;;;;6202141;28;20472;-73
2022/03/03 04:24:03;;;;;;;21.52;13.57;;;;;;;;;;6200905;28;20052;-72
2022/03/03 04:27:05;;;;;;;20.30;13.57;;;;;;;;;;6207989;28;20566;-74
2022/03/03 04:30:10;;;;;;;24.20;14.07;;;;;;;;;;6205849;28;20125;-71
2022/03/03 04:33:11;;;;;;;;;;;;;;;;;;6206708;28;20047;-71
2022/03/03 04:36:13;;;;;;;19.23;12.27;;;;;;;;;;6206400;28;20125;-72
2022/03/03 04:39:16;;;;;;;20.17;13.57;;;;;;;;;;6211206;28;20193;-71
2022/03/03 04:42:17;;;;;;;23.75;14.60;;;;;;;;;;6208908;28;20050;-74
2022/03/03 04:45:19;;;;;;;21.70;13.77;;;;;;;;;;6207824;28;20447;-74
2022/03/03 04:48:21;;;;;;;23.75;13.95;;;;;;;;;;6205579;28;20050;-74
2022/03/03 04:51:23;;;;;;;23.27;14.73;;;;;;;;;;6207343;28;20052;-74
2022/03/03 04:54:26;;;;;;;21.65;14.20;;;;;;;;;;6201074;28;20144;-74
2022/03/03 04:57:27;;;;;;;28.38;14.75;;;;;;;;;;6202684;28;20129;-74
2022/03/03 05:00:29;;;;;;;26.60;14.48;;;;;;;;;;6201773;28;20096;-75
2022/03/03 05:03:30;;;;;;;24.73;13.45;;;;;;;;;;6199898;28;20057;-75
2022/03/03 05:06:32;;;;;;;20.48;11.70;;;;;;;;;;6201365;28;20054;-75
2022/03/03 05:09:35;;;;;;;21.85;12.77;;;;;;;;;;6205719;28;20341;-75
2022/03/03 05:12:36;;;;;;;17.90;12.45;;;;;;;;;;6208321;28;20100;-75
2022/03/03 05:15:38;;;;;;;18.85;11.82;;;;;;;;;;6211210;28;20644;-74
2022/03/03 05:18:39;;;;;;;21.33;12.20;;;;;;;;;;6211166;28;20065;-74
2022/03/03 05:21:41;;;;;;;18.73;11.85;;;;;;;;;;6211512;28;20082;-75
2022/03/03 05:24:49;;;;;;;20.77;11.73;;;;;;;;;;6207230;28;20470;-74
2022/03/03 05:27:51;;;;;;;20.80;12.40;;;;;;;;;;6206443;28;20197;-74
2022/03/03 05:30:53;;;;;;;17.25;11.57;;;;;;;;;;6199976;28;20042;-75
2022/03/03 05:33:54;;;;;;;18.50;10.93;;;;;;;;;;6205243;28;20490;-74
2022/03/03 05:36:56;;;;;;;18.50;11.95;;;;;;;;;;6201274;28;20068;-75
2022/03/03 05:39:59;;;;;;;15.77;11.15;;;;;;;;;;6201441;28;20131;-74
2022/03/03 05:43:00;;;;;;;20.75;11.10;;;;;;;;;;6198601;28;20136;-74
2022/03/03 05:46:03;;;;;;;19.00;12.13;;;;;;;;;;6201213;28;20084;-74
2022/03/03 05:49:04;;;;;;;19.30;11.73;;;;;;;;;;6217228;28;20131;-74
2022/03/03 05:52:07;;;;;;;17.35;11.35;;;;;;;;;;6215296;28;20180;-75
2022/03/03 05:55:10;;;;;;;19.35;11.77;;;;;;;;;;6213695;28;20137;-74
2022/03/03 05:58:12;;;;;;;17.90;11.52;;;;;;;;;;6208726;28;20094;-75
2022/03/03 06:01:15;;;;;;;18.27;12.32;;;;;;;;;;6209538;28;20394;-74
2022/03/03 06:04:17;;;;;;;17.92;11.27;;;;;;;;;;6208269;28;20130;-74
2022/03/03 06:07:25;;;;;;;19.30;11.77;;;;;;;;;;6206206;28;20264;-74
2022/03/03 06:10:33;;;;;;;18.45;12.63;;;;;;;;;;6209356;28;20140;-74
2022/03/03 06:13:37;;;;;;;17.70;11.65;;;;;;;;;;6206026;28;20109;-74
2022/03/03 06:16:39;;;;;;;18.83;12.77;;;;;;;;;;6205531;28;20061;-74
2022/03/03 06:19:42;;;;;;;21.77;12.02;;;;;;;;;;6206277;28;20141;-74
2022/03/03 06:22:43;;;;;;;18.48;12.20;;;;;;;;;;6208250;28;20103;-74
2022/03/03 06:25:47;;;;;;;19.45;12.73;;;;;;;;;;6213350;28;20533;-72
2022/03/03 06:28:49;;;;;;;19.30;12.05;;;;;;;;;;6220137;28;20100;-72
2022/03/03 06:31:50;;;;;;;17.25;12.23;;;;;;;;;;6215581;28;20050;-71
2022/03/03 06:34:52;;;;;;;23.48;12.43;;;;;;;;;;6214839;28;20601;-71
2022/03/03 06:37:53;;;;;;;18.10;11.73;;;;;;;;;;6212221;28;20502;-70
2022/03/03 06:40:57;;;;;;;20.10;12.52;;;;;;;;;;6211797;28;20053;-73
2022/03/03 06:43:59;;;;;;;17.48;11.77;;;;;;;;;;6208613;28;20055;-74
2022/03/03 06:47:01;;;;;;;20.38;12.40;;;;;;;;;;6205312;28;20487;-74
2022/03/03 06:50:04;;;;;;;17.77;12.38;;;;;;;;;;6207560;28;20075;-74
2022/03/03 06:53:07;;;;;;;18.83;12.13;;;;;;;;;;6201596;28;20564;-74
2022/03/03 06:56:11;;;;;;;22.35;13.38;;;;;;;;;;6205040;28;20321;-74
2022/03/03 06:59:15;;;;;;;20.25;12.40;;;;;;;;;;6208130;28;20485;-74
2022/03/03 07:02:16;;;;;;;19.15;12.15;;;;;;;;;;6207054;28;20568;-71
2022/03/03 07:05:18;;;;;;;17.75;11.68;;;;;;;;;;6203872;28;20050;-73
2022/03/03 07:08:21;;;;;;;23.30;11.90;;;;;;;;;;6215238;28;20074;-73
2022/03/03 07:11:25;;;;;;;16.35;10.73;;;;;;;;;;6210321;28;20526;-73
2022/03/03 07:14:26;;;;;;;16.48;10.85;;;;;;;;;;6206932;28;20048;-73
2022/03/03 07:17:34;;;;;;;16.35;11.43;;;;;;;;;;6208436;28;20553;-73
2022/03/03 07:20:40;;;;;;;20.05;10.93;;;;;;;;;;6206322;28;20133;-73
2022/03/03 07:23:47;;;;;;;18.58;10.85;;;;;;;;;;6206278;28;20081;-73
2022/03/03 07:26:52;;;;;;;17.10;10.65;;;;;;;;;;6205130;28;20186;-72
2022/03/03 07:29:56;;;;;;;19.17;10.48;;;;;;;;;;6205630;28;20447;-72
2022/03/03 07:33:04;;;;;;;22.13;11.50;;;;;;;;;;6211269;28;20477;-73
2022/03/03 07:36:08;;;;;;;18.63;12.30;;;;;;;;;;6209141;28;20565;-72
2022/03/03 07:39:12;;;;;;;18.95;11.13;;;;;;;;;;6206372;28;20100;-72
2022/03/03 07:42:17;;;;;;;15.88;11.18;;;;;;;;;;6208864;28;20053;-73
2022/03/03 07:45:19;;;;;;;16.85;11.38;;;;;;;;;;6205146;28;20372;-72
2022/03/03 07:48:24;;;;;;;18.15;12.02;;;;;;;;;;6210970;28;20088;-73
2022/03/03 07:51:26;;;;;;;20.05;12.07;;;;;;;;;;6209923;28;20140;-72
2022/03/03 07:54:27;;;;;;;20.08;12.02;;;;;;;;;;6206344;28;20077;-73
2022/03/03 07:57:35;;;;;;;19.77;12.20;;;;;;;;;;6206537;28;20134;-72
2022/03/03 08:00:40;;;;;;;20.73;11.35;;;;;;;;;;6204767;28;20055;-72
2022/03/03 08:03:45;;;;;;;18.35;12.32;;;;;;;;;;6205464;28;20065;-73
2022/03/03 08:06:48;;;;;;;17.98;12.23;;;;;;;;;;6208730;28;20046;-73
2022/03/03 08:09:50;;;;;;;19.20;12.18;;;;;;;;;;6209694;28;20050;-73
2022/03/03 08:12:57;;;;;;;23.02;12.85;;;;;;;;;;6204675;28;20502;-72
2022/03/03 08:15:59;;;;;;;22.52;14.35;;;;;;;;;;6207529;28;20442;-72
2022/03/03 08:19:02;;;;;;;21.75;13.90;;;;;;;;;;6204434;28;20042;-72
2022/03/03 08:22:05;;;;;;;23.77;14.55;;;;;;;;;;6207054;28;20469;-72
2022/03/03 08:25:08;;;;;;;21.60;13.55;;;;;;;;;;6205286;28;20050;-71
2022/03/03 08:28:11;;;;;;;24.73;13.93;;;;;;;;;;6202670;28;20168;-73
2022/03/03 08:31:17;;;;;;;21.85;13.45;;;;;;;;;;6209988;28;20065;-72
2022/03/03 08:34:25;;;;;;;21.45;13.70;;;;;;;;;;6206520;28;20054;-74
2022/03/03 08:37:30;;;;;;;21.15;12.38;;;;;;;;;;6201961;28;20120;-73
2022/03/03 08:40:32;;;;;;;24.75;15.05;;;;;;;;;;6201927;28;20108;-73
2022/03/03 08:43:36;;;;;;;21.75;13.30;;;;;;;;;;6211199;28;20125;-73
2022/03/03 08:46:38;;;;;;;;;;;;;;;;;;6209297;28;20054;-73
2022/03/03 08:49:42;;;;;;;21.67;12.13;;;;;;;;;;6204377;28;19921;-72
2022/03/03 08:52:44;;;;;;;21.67;12.85;;;;;;;;;;6204182;28;20375;-72
2022/03/03 08:55:46;;;;;;;19.92;12.95;;;;;;;;;;6199255;28;20524;-72
2022/03/03 08:58:49;;;;;;;21.25;12.20;;;;;;;;;;6203143;28;20185;-71
2022/03/03 09:01:53;;;;;;;19.17;12.07;;;;;;;;;;6203296;28;20057;-71
2022/03/03 09:04:55;;;;;;;19.65;11.85;;;;;;;;;;6203664;28;20039;-71
2022/03/03 09:07:57;;;;;;;19.35;13.25;;;;;;;;;;6205260;28;20054;-71
2022/03/03 09:10:58;;;;;;;17.00;12.30;;;;;;;;;;6201175;28;20136;-72
2022/03/03 09:14:01;;;;;;;18.65;12.75;;;;;;;;;;6201647;28;20065;-71
2022/03/03 09:17:03;;;;;;;20.35;13.35;;;;;;;;;;6208666;28;20071;-72
2022/03/03 09:20:07;;;;;;;21.05;12.70;;;;;;;;;;6212207;28;20137;-69
2022/03/03 09:23:08;;;;;;;;;;;;;;;;;;6209784;28;20128;-68
2022/03/03 09:26:11;;;;;;;17.27;12.00;;;;;;;;;;6207908;28;19922;-70
2022/03/03 09:29:16;;;;;;;21.15;13.45;;;;;;;;;;6205019;28;20050;-70
2022/03/03 09:32:18;;;;;;;17.67;12.63;;;;;;;;;;6202691;28;20073;-70
2022/03/03 09:35:19;;;;;;;16.05;11.00;;;;;;;;;;6204535;28;20060;-69
2022/03/03 09:38:21;;;;;;;16.13;10.45;;;;;;;;;;6203200;28;20046;-74
2022/03/03 09:41:23;;;;;;;16.00;11.23;;;;;;;;;;6202884;28;20061;-71
2022/03/03 09:44:28;;;;;;;19.27;12.38;;;;;;;;;;6200838;28;20065;-72
2022/03/03 09:47:30;;;;;;;16.05;11.00;;;;;;;;;;6209445;28;20140;-71
2022/03/03 09:50:34;;;;;;;17.00;11.00;;;;;;;;;;6211569;28;20050;-71
2022/03/03 09:53:40;;;;;;;14.75;11.35;;;;;;;;;;6218682;28;20183;-71
2022/03/03 09:56:41;;;;;;;16.40;12.10;;;;;;;;;;6215774;28;20596;-71
2022/03/03 09:59:44;;;;;;;17.27;11.75;;;;;;;;;;6211446;28;20223;-71
2022/03/03 10:02:59;;;;;;;12.27;9.90;;;;;;;;;;6212505;28;20053;-72
2022/03/03 10:06:01;;;;;;;14.63;10.40;;;;;;;;;;6211840;28;20507;-72
2022/03/03 10:09:04;;;;;;;17.75;10.93;;;;;;;;;;6209120;28;20192;-70
2022/03/03 10:12:07;;;;;;;15.75;9.93;;;;;;;;;;6207790;28;20057;-72
2022/03/03 10:15:14;;;;;;;15.23;11.20;;;;;;;;;;6207847;28;20176;-72
2022/03/03 10:18:17;;;;;;;17.05;12.25;;;;;;;;;;6203916;28;20498;-71
2022/03/03 10:21:19;;;;;;;17.65;12.40;;;;;;;;;;6207467;28;20054;-71
2022/03/03 10:24:24;;;;;;;15.93;12.80;;;;;;;;;;6208466;28;20128;-72
2022/03/03 10:27:29;;;;;;;16.70;12.98;;;;;;;;;;6216898;28;20053;-71
2022/03/03 10:30:47;;;;;;;16.20;12.50;;;;;;;;;;6210698;28;20096;-72
2022/03/03 10:33:50;;;;;;;22.83;12.23;;;;;;;;;;6214027;28;20533;-72
2022/03/03 10:36:59;;;;;;;18.75;12.52;;;;;;;;;;6215859;28;20069;-72
2022/03/03 10:40:01;;;;;;;18.75;13.57;;;;;;;;;;6212696;28;20212;-72
2022/03/03 10:43:04;;;;;;;17.60;13.27;;;;;;;;;;6209647;28;20092;-72
2022/03/03 10:46:07;;;;;;;18.17;14.50;;;;;;;;;;6204251;28;20516;-72
2022/03/03 10:49:20;;;;;;;19.83;14.47;;;;;;;;;;6207738;28;20579;-72
2022/03/03 10:52:24;;;;;;;17.37;14.47;;;;;;;;;;6208710;28;20137;-72
2022/03/03 10:55:25;;;;;;;19.65;13.90;;;;;;;;;;6210466;28;20054;-73
2022/03/03 10:58:48;;;;;;;21.27;15.32;;;;;;;;;;6210093;28;20489;-73
2022/03/03 11:01:52;;;;;;;19.00;14.55;;;;;;;;;;6216377;28;20099;-73
2022/03/03 11:04:54;;;;;;;21.42;14.02;;;;;;;;;;6209567;28;20538;-71
2022/03/03 11:07:57;;;;;;;19.05;15.27;;;;;;;;;;6214464;28;20082;-78
2022/03/03 11:10:59;;;;;;;127.82;85.13;;;;;;;;;;6213329;28;20061;-76
2022/03/03 11:14:00;;;;;;;25.50;17.75;;;;;;;;;;6212382;28;20137;-75
2022/03/03 11:17:04;;;;;;;35.30;23.10;;;;;;;;;;6211628;28;20132;-77
2022/03/03 11:20:08;;;;;;;39.13;29.58;;;;;;;;;;6210371;28;20054;-78
2022/03/03 11:23:09;;;;;;;80.43;56.78;;;;;;;;;;6208014;28;20100;-77
2022/03/03 11:26:21;;;;;;;44.15;32.65;;;;;;;;;;6206413;28;20060;-75
2022/03/03 11:29:22;;;;;;;26.27;19.48;;;;;;;;;;6203366;28;20674;-75
2022/03/03 11:32:25;;;;;;;19.40;15.70;;;;;;;;;;6204445;28;20620;-74
2022/03/03 11:35:45;;;;;;;19.90;14.40;;;;;;;;;;6204171;28;20551;-75
2022/03/03 11:38:54;;;;;;;15.73;13.18;;;;;;;;;;6207998;28;20046;-75
2022/03/03 11:41:56;;;;;;;18.95;14.77;;;;;;;;;;6208470;28;20093;-75
2022/03/03 11:45:00;;;;;;;18.95;14.18;;;;;;;;;;6207043;28;20064;-74
2022/03/03 11:48:12;;;;;;;17.35;14.90;;;;;;;;;;6212985;28;20219;-75
2022/03/03 11:51:33;;;;;;;17.83;15.02;;;;;;;;;;6208879;28;20274;-75
2022/03/03 11:54:35;;;;;;;20.27;14.00;;;;;;;;;;6207952;28;20054;-75
2022/03/03 11:57:36;;;;;;;22.95;14.07;;;;;;;;;;6207858;28;20137;-74
2022/03/03 12:00:40;;;;;;;19.23;14.20;;;;;;;;;;6206741;28;20109;-74
2022/03/03 12:04:11;;;;;;;22.45;14.82;;;;;;;;;;6200732;28;20137;-74
2022/03/03 12:07:27;;;;;;;18.45;14.65;;;;;;;;;;6178509;28;20438;-75
2022/03/03 12:10:29;;;;;;;18.15;14.98;;;;;;;;;;6200795;28;20125;-74
2022/03/03 12:13:32;;;;;;;19.83;14.73;;;;;;;;;;6206374;28;20150;-74
2022/03/03 12:16:34;;;;;;;18.85;15.40;;;;;;;;;;6204342;28;20571;-74
2022/03/03 12:19:38;;;;;;;19.75;14.57;;;;;;;;;;6203933;28;20448;-75
2022/03/03 12:22:59;;;;;;;22.98;14.75;;;;;;;;;;6204362;28;20398;-74
2022/03/03 12:26:04;;;;;;;17.95;14.35;;;;;;;;;;6206367;28;20148;-74
2022/03/03 12:29:28;;;;;;;19.35;15.70;;;;;;;;;;6206836;28;20426;-73
2022/03/03 12:32:39;;;;;;;20.38;15.30;;;;;;;;;;6206041;28;20054;-74
2022/03/03 12:35:43;;;;;;;16.48;13.93;;;;;;;;;;6206206;28;20618;-74
2022/03/03 12:38:45;;;;;;;16.25;14.25;;;;;;;;;;6205614;28;20161;-74
2022/03/03 12:41:46;;;;;;;18.80;15.00;;;;;;;;;;6202578;28;20073;-74
2022/03/03 12:44:50;;;;;;;17.25;14.10;;;;;;;;;;6204696;28;20137;-75
2022/03/03 12:47:53;;;;;;;17.30;14.55;;;;;;;;;;6209671;28;20050;-73
2022/03/03 12:51:02;;;;;;;18.50;15.60;;;;;;;;;;6206630;28;20557;-74
2022/03/03 12:54:05;;;;;;;24.48;14.45;;;;;;;;;;6202520;28;20046;-74
2022/03/03 12:57:08;;;;;;;18.92;14.45;;;;;;;;;;6204010;28;20070;-75
2022/03/03 13:00:12;;;;;;;19.47;14.07;;;;;;;;;;6199816;28;20417;-74
2022/03/03 13:03:15;;;;;;;18.98;14.13;;;;;;;;;;6202055;28;20452;-75
2022/03/03 13:06:20;;;;;;;17.77;14.73;;;;;;;;;;6208126;28;20140;-74
2022/03/03 13:09:22;;;;;;;16.30;12.82;;;;;;;;;;6202864;28;20061;-74
2022/03/03 13:12:23;;;;;;;16.20;13.40;;;;;;;;;;6206515;28;20046;-75
2022/03/03 13:15:33;;;;;;;14.85;13.20;;;;;;;;;;6203357;28;20469;-75
2022/03/03 13:18:35;;;;;;;22.80;17.30;;;;;;;;;;6202031;28;20151;-69
2022/03/03 13:21:43;;;;;;;43.03;30.38;;;;;;;;;;6208664;28;20570;-68
2022/03/03 13:24:44;;;;;;;20.38;15.88;;;;;;;;;;6209544;28;20053;-68
2022/03/03 13:27:46;;;;;;;21.15;15.88;;;;;;;;;;6201219;28;20406;-67
2022/03/03 13:30:52;;;;;;;22.08;15.43;;;;;;;;;;6204087;28;20085;-66
2022/03/03 13:33:55;;;;;;;15.85;13.07;;;;;;;;;;6205479;28;20054;-67
2022/03/03 13:37:01;;;;;;;16.33;12.80;;;;;;;;;;6201761;28;20046;-67
2022/03/03 13:40:13;;;;;;;15.70;12.65;;;;;;;;;;6199714;28;20085;-67
2022/03/03 13:43:25;;;;;;;17.23;12.45;;;;;;;;;;6199537;28;20585;-74
2022/03/03 13:46:30;;;;;;;16.10;12.35;;;;;;;;;;6203393;28;20100;-67
2022/03/03 13:49:33;;;;;;;16.55;12.95;;;;;;;;;;6204098;28;20137;-74
2022/03/03 13:52:37;;;;;;;17.15;13.57;;;;;;;;;;6200252;28;20055;-72
2022/03/03 13:55:39;;;;;;;18.05;12.98;;;;;;;;;;6204383;28;20050;-77
2022/03/03 13:58:40;;;;;;;17.02;12.88;;;;;;;;;;6209862;28;20125;-73
2022/03/03 14:01:42;;;;;;;15.10;12.73;;;;;;;;;;6209749;28;20114;-73
2022/03/03 14:04:57;;;;;;;16.15;12.32;;;;;;;;;;6206568;28;20291;-74
2022/03/03 14:08:01;;;;;;;16.38;12.52;;;;;;;;;;6204606;28;20139;-74
2022/03/03 14:11:04;;;;;;;17.48;13.60;;;;;;;;;;6200500;28;20192;-74
2022/03/03 14:14:06;;;;;;;19.83;13.05;;;;;;;;;;6201278;28;20096;-74
2022/03/03 14:17:07;;;;;;;20.10;14.02;;;;;;;;;;6203688;28;20042;-74
2022/03/03 14:20:10;;;;;;;17.45;13.32;;;;;;;;;;6204570;28;20053;-74
2022/03/03 14:23:12;;;;;;;27.58;13.20;;;;;;;;;;6200559;28;20097;-74
2022/03/03 14:26:17;;;;;;;17.55;13.48;;;;;;;;;;6202065;28;20050;-74
2022/03/03 14:29:19;;;;;;;16.00;13.02;;;;;;;;;;6204568;28;20089;-74
2022/03/03 14:32:20;;;;;;;18.20;13.30;;;;;;;;;;6215562;28;20606;-74
2022/03/03 14:35:22;;;;;;;20.73;13.98;;;;;;;;;;6213201;28;20149;-75
2022/03/03 14:38:26;;;;;;;16.50;12.63;;;;;;;;;;6210431;28;20070;-74
2022/03/03 14:41:28;;;;;;;17.52;12.90;;;;;;;;;;6213325;28;20624;-74
2022/03/03 14:44:29;;;;;;;15.63;13.20;;;;;;;;;;6210305;28;20470;-74
2022/03/03 14:47:31;;;;;;;18.23;12.30;;;;;;;;;;6209711;28;20052;-74
2022/03/03 14:50:35;;;;;;;19.08;13.48;;;;;;;;;;6208811;28;20062;-74
2022/03/03 14:53:38;;;;;;;19.70;14.77;;;;;;;;;;6207956;28;20054;-74
2022/03/03 14:56:40;;;;;;;19.73;14.02;;;;;;;;;;6205733;28;20197;-74
2022/03/03 14:59:41;;;;;;;19.45;15.10;;;;;;;;;;6205381;28;20129;-74
2022/03/03 15:02:43;;;;;;;21.33;14.15;;;;;;;;;;6207089;28;20441;-74
2022/03/03 15:05:44;;;;;;;18.10;13.90;;;;;;;;;;6212743;28;20137;-75
2022/03/03 15:08:47;;;;;;;20.15;16.27;;;;;;;;;;6212395;28;20061;-74
2022/03/03 15:11:49;;;;;;;20.75;15.25;;;;;;;;;;6214438;28;20202;-75
2022/03/03 15:14:50;;;;;;;21.52;16.08;;;;;;;;;;6213785;28;20559;-74
2022/03/03 15:17:52;;;;;;;21.42;15.75;;;;;;;;;;6212737;28;20173;-73
2022/03/03 15:20:53;;;;;;;22.65;15.50;;;;;;;;;;6204934;28;20050;-75
2022/03/03 15:23:56;;;;;;;21.83;15.23;;;;;;;;;;6204703;28;20132;-74
2022/03/03 15:26:58;;;;;;;19.33;15.18;;;;;;;;;;6204222;28;20577;-74
2022/03/03 15:29:59;;;;;;;18.63;14.95;;;;;;;;;;6206477;28;20046;-74
2022/03/03 15:33:01;;;;;;;19.38;15.10;;;;;;;;;;6205041;28;20107;-74
2022/03/03 15:39:25;;;;;;;21.67;16.67;;;;;;;;;;6205791;28;20438;-75
2022/03/03 15:42:26;;;;;;;23.70;16.25;;;;;;;;;;6206366;28;20128;-74
2022/03/03 15:45:28;;;;;;;43.88;17.77;;;;;;;;;;6209199;28;20496;-74
2022/03/03 15:48:29;;;;;;;25.05;16.83;;;;;;;;;;6206570;28;20180;-74
2022/03/03 15:51:31;;;;;;;28.02;17.30;;;;;;;;;;6205059;28;20095;-73
2022/03/03 15:54:34;;;;;;;54.33;17.77;;;;;;;;;;6204734;28;20251;-74
2022/03/03 15:57:36;;;;;;;40.45;17.40;;;;;;;;;;6203362;28;20114;-75
2022/03/03 16:00:37;;;;;;;42.08;18.58;;;;;;;;;;6200544;28;20125;-73
2022/03/03 16:03:39;;;;;;;34.92;16.63;;;;;;;;;;6203829;28;20121;-74
2022/03/03 16:06:41;;;;;;;55.80;40.22;;;;;;;;;;6207450;28;20039;-73
2022/03/03 16:09:44;;;;;;;72.63;49.05;;;;;;;;;;6204635;28;20156;-72
2022/03/03 16:12:45;;;;;;;22.52;17.45;;;;;;;;;;6207772;28;20175;-74
2022/03/03 16:15:47;;;;;;;24.83;16.63;;;;;;;;;;6206603;28;20172;-74
2022/03/03 16:18:48;;;;;;;37.28;17.60;;;;;;;;;;6196261;28;20806;-74
2022/03/03 16:21:50;;;;;;;31.55;15.68;;;;;;;;;;6201565;28;20409;-75
2022/03/03 16:24:53;;;;;;;36.92;17.27;;;;;;;;;;6211098;28;20127;-74
2022/03/03 16:27:55;;;;;;;26.13;15.60;;;;;;;;;;6208075;28;20175;-74
2022/03/03 16:30:58;;;;;;;30.63;16.88;;;;;;;;;;6206916;28;20046;-74
2022/03/03 16:34:00;;;;;;;32.08;18.02;;;;;;;;;;6204392;28;20169;-74
2022/03/03 16:37:01;;;;;;;27.48;18.90;;;;;;;;;;6199213;28;20157;-74
2022/03/03 16:40:06;;;;;;;23.90;17.70;;;;;;;;;;6200854;28;20057;-74
2022/03/03 16:43:08;;;;;;;27.95;18.17;;;;;;;;;;6200914;28;20485;-74
2022/03/03 16:46:09;;;;;;;27.40;18.90;;;;;;;;;;6203114;28;20144;-74
2022/03/03 16:49:12;;;;;;;31.73;18.48;;;;;;;;;;6198987;28;20073;-74
2022/03/03 16:52:17;;;;;;;32.90;18.08;;;;;;;;;;6202345;28;20061;-74
2022/03/03 16:55:21;;;;;;;32.47;17.50;;;;;;;;;;6204742;28;20050;-74
2022/03/03 16:58:22;;;;;;;28.88;18.00;;;;;;;;;;6205494;28;20667;-74
2022/03/03 17:01:24;;;;;;;28.55;19.85;;;;;;;;;;6200720;28;20179;-74
2022/03/03 17:04:28;;;;;;;36.47;18.25;;;;;;;;;;6203290;28;20077;-73
2022/03/03 17:07:30;;;;;;;32.65;19.30;;;;;;;;;;6208553;28;20134;-74
2022/03/03 17:10:33;;;;;;;24.73;18.52;;;;;;;;;;6205445;28;20124;-74
2022/03/03 17:13:35;;;;;;;25.30;17.75;;;;;;;;;;6200802;28;20045;-74
2022/03/03 17:16:36;;;;;;;30.50;17.77;;;;;;;;;;6200769;28;20232;-73
2022/03/03 17:19:38;;;;;;;26.98;18.00;;;;;;;;;;6197236;28;20692;-73
2022/03/03 17:22:40;;;;;;;28.63;18.02;;;;;;;;;;6197108;28;20125;-74
2022/03/03 17:25:43;;;;;;;28.48;18.38;;;;;;;;;;6204420;28;20179;-74
2022/03/03 17:28:47;;;;;;;24.83;18.00;;;;;;;;;;6206933;28;20188;-74
2022/03/03 17:31:49;;;;;;;32.08;18.05;;;;;;;;;;6198982;28;20046;-74
2022/03/03 17:34:51;;;;;;;32.00;17.35;;;;;;;;;;6204285;28;20041;-74
2022/03/03 17:37:53;;;;;;;29.60;17.42;;;;;;;;;;6206054;28;20688;-74
2022/03/03 17:40:56;;;;;;;25.92;17.33;;;;;;;;;;6208350;28;20046;-74
2022/03/03 17:43:57;;;;;;;29.03;18.57;;;;;;;;;;6202768;28;20042;-74
2022/03/03 17:46:59;;;;;;;31.65;18.30;;;;;;;;;;6202922;28;20073;-74
2022/03/03 17:50:00;;;;;;;36.42;18.17;;;;;;;;;;6203651;28;20056;-74
2022/03/03 17:53:02;;;;;;;27.52;18.52;;;;;;;;;;6204157;28;20176;-74
2022/03/03 17:56:06;;;;;;;30.05;18.27;;;;;;;;;;6204769;28;20572;-74